createdAt,value
2022-08-17T00:02:26.167Z,9.80
2022-08-17T00:07:28.779Z,10.67
2022-08-17T00:12:41.839Z,11.00
2022-08-17T00:17:50.775Z,10.70
2022-08-17T00:23:15.511Z,8.53
2022-08-17T00:28:18.695Z,10.23
2022-08-17T00:33:30.682Z,10.70
2022-08-17T00:38:33.926Z,10.17
2022-08-17T00:43:57.901Z,9.47
2022-08-17T00:49:00.497Z,13.00
2022-08-17T00:54:28.615Z,9.00
2022-08-17T00:59:40.274Z,13.33
2022-08-17T01:04:46.079Z,10.00
2022-08-17T01:09:49.283Z,9.63
2022-08-17T01:14:51.023Z,9.47
2022-08-17T01:19:52.935Z,9.70
2022-08-17T01:25:06.090Z,10.57
2022-08-17T01:30:56.994Z,15.30
2022-08-17T01:35:34.427Z,10.10
2022-08-17T01:40:46.609Z,11.60
2022-08-17T01:46:02.735Z,10.43
2022-08-17T01:51:07.620Z,9.60
2022-08-17T01:56:17.094Z,8.77
2022-08-17T02:01:30.139Z,10.17
2022-08-17T02:06:52.697Z,10.33
2022-08-17T02:11:59.963Z,8.47
2022-08-17T02:17:21.839Z,10.53
2022-08-17T02:22:26.110Z,10.57
2022-08-17T02:27:27.983Z,10.10
2022-08-17T02:32:29.693Z,11.13
2022-08-17T02:37:32.225Z,10.13
2022-08-17T02:42:42.186Z,10.60
2022-08-17T02:47:45.753Z,10.00
2022-08-17T02:53:01.584Z,9.30
2022-08-17T02:58:05.565Z,12.17
2022-08-17T03:03:10.822Z,10.80
2022-08-17T03:08:13.360Z,10.13
2022-08-17T03:13:15.609Z,10.60
2022-08-17T03:18:24.976Z,10.47
2022-08-17T03:23:29.721Z,8.87
2022-08-17T03:28:32.063Z,10.47
2022-08-17T03:33:34.610Z,10.60
2022-08-17T03:38:39.281Z,11.03
2022-08-17T03:43:41.242Z,10.63
2022-08-17T03:49:01.322Z,16.10
2022-08-17T03:54:21.617Z,11.80
2022-08-17T03:59:23.604Z,12.40
2022-08-17T04:04:28.024Z,11.93
2022-08-17T04:09:30.026Z,11.17
2022-08-17T04:14:39.249Z,19.17
2022-08-17T04:19:56.474Z,15.43
2022-08-17T04:24:59.253Z,18.57
2022-08-17T04:30:01.834Z,11.00
2022-08-17T04:35:04.018Z,13.40
2022-08-17T04:40:26.492Z,12.33
2022-08-17T04:45:31.260Z,19.13
2022-08-17T04:50:43.473Z,16.63
2022-08-17T04:55:46.081Z,19.33
2022-08-17T05:00:48.027Z,15.03
2022-08-17T05:05:50.098Z,18.00
2022-08-17T05:10:52.108Z,18.93
2022-08-17T05:15:59.679Z,19.90
2022-08-17T05:21:02.735Z,16.27
2022-08-17T05:26:04.866Z,21.00
2022-08-17T05:31:10.997Z,16.10
2022-08-17T05:36:41.658Z,24.10
2022-08-17T05:41:37.731Z,40.33
2022-08-17T05:46:50.767Z,16.13
2022-08-17T05:52:11.716Z,24.50
2022-08-17T05:58:03.694Z,16.53
2022-08-17T06:03:29.956Z,27.60
2022-08-17T06:09:08.490Z,18.83
2022-08-17T06:14:50.057Z,22.10
2022-08-17T06:20:08.202Z,19.87
2022-08-17T06:25:34.826Z,20.30
2022-08-17T06:31:08.035Z,18.90
2022-08-17T06:36:56.822Z,19.33
2022-08-17T06:42:58.790Z,17.87
2022-08-17T06:48:02.099Z,11.13
2022-08-17T06:53:35.464Z,19.60
2022-08-17T06:58:43.289Z,9.73
2022-08-17T07:04:11.563Z,10.67
2022-08-17T07:09:33.950Z,10.70
2022-08-17T07:15:16.591Z,14.47
2022-08-17T07:20:22.404Z,19.00
2022-08-17T07:25:25.091Z,12.93
2022-08-17T07:30:37.181Z,9.40
2022-08-17T07:35:50.034Z,9.63
2022-08-17T07:40:58.139Z,8.03
2022-08-17T07:46:43.033Z,6.23
2022-08-17T07:51:45.578Z,8.00
2022-08-17T07:56:53.615Z,8.83
2022-08-17T08:01:58.320Z,10.03
2022-08-17T08:07:12.205Z,7.30
2022-08-17T08:12:33.782Z,7.70
2022-08-17T08:18:02.975Z,7.50
2022-08-17T08:23:43.969Z,9.57
2022-08-17T08:29:08.303Z,4.43
2022-08-17T08:34:58.817Z,3.73
2022-08-17T08:40:32.169Z,4.30
2022-08-17T08:45:57.961Z,4.57
2022-08-17T08:51:27.611Z,9.80
2022-08-17T08:57:22.277Z,14.90
2022-08-17T09:03:03.745Z,3.50
2022-08-17T09:08:58.380Z,3.50
2022-08-17T09:14:21.212Z,3.83
2022-08-17T09:19:40.969Z,5.00
2022-08-17T09:25:23.314Z,4.40
2022-08-17T09:30:40.817Z,3.80
2022-08-17T09:35:53.777Z,3.13
2022-08-17T09:41:27.046Z,14.53
2022-08-17T09:46:43.500Z,3.10
2022-08-17T09:51:58.237Z,3.33
2022-08-17T09:57:30.684Z,3.70
2022-08-17T10:03:08.753Z,3.60
2022-08-17T10:09:22.562Z,2.90
2022-08-17T10:15:07.746Z,4.40
2022-08-17T10:20:44.801Z,8.37
2022-08-17T10:26:14.472Z,4.67
2022-08-17T10:31:47.714Z,5.10
2022-08-17T10:37:11.813Z,3.30
2022-08-17T10:42:30.757Z,4.50
2022-08-17T10:48:07.175Z,5.33
2022-08-17T10:53:09.657Z,3.43
2022-08-17T10:58:22.011Z,4.50
2022-08-17T11:03:26.350Z,4.40
2022-08-17T11:09:23.254Z,4.50
2022-08-17T11:15:01.071Z,2.47
2022-08-17T11:20:09.460Z,3.17
2022-08-17T11:25:21.173Z,3.03
2022-08-17T11:30:55.169Z,4.90
2022-08-17T11:36:10.135Z,3.27
2022-08-17T11:56:52.982Z,2.00
2022-08-17T12:01:57.133Z,2.20
2022-08-17T12:07:20.654Z,2.90
2022-08-17T12:12:35.827Z,3.27
2022-08-17T12:17:39.269Z,2.60
2022-08-17T12:23:06.751Z,4.27
2022-08-17T12:28:31.678Z,3.60
2022-08-17T12:33:37.396Z,2.80
2022-08-17T12:38:39.248Z,3.47
2022-08-17T12:43:41.008Z,13.63
2022-08-17T12:48:59.168Z,3.07
2022-08-17T12:54:02.432Z,3.93
2022-08-17T12:59:04.294Z,2.67
2022-08-17T13:04:06.633Z,4.73
2022-08-17T13:09:19.915Z,10.77
2022-08-17T13:14:22.529Z,3.63
2022-08-17T13:19:29.871Z,17.63
2022-08-17T13:24:57.946Z,6.07
2022-08-17T13:30:12.167Z,7.30
2022-08-17T13:35:39.548Z,4.13
2022-08-17T13:40:50.800Z,2.70
2022-08-17T13:45:53.570Z,3.30
2022-08-17T13:50:55.191Z,2.60
2022-08-17T13:56:04.620Z,2.83
2022-08-17T14:01:37.668Z,2.90
2022-08-17T14:07:08.489Z,2.77
2022-08-17T14:12:16.212Z,2.33
2022-08-17T14:17:19.102Z,2.60
2022-08-17T14:22:32.928Z,3.10
2022-08-17T14:27:51.828Z,4.17
2022-08-17T14:32:56.384Z,3.23
2022-08-17T14:37:58.372Z,3.93
2022-08-17T14:43:01.293Z,5.67
2022-08-17T14:48:09.095Z,6.10
2022-08-17T14:53:15.115Z,7.00
2022-08-17T14:58:17.261Z,3.00
2022-08-17T15:03:19.078Z,4.07
2022-08-17T15:08:20.900Z,4.23
2022-08-17T15:13:26.440Z,5.10
2022-08-17T15:18:29.894Z,2.97
2022-08-17T15:23:32.049Z,4.40
2022-08-17T15:28:34.143Z,4.37
2022-08-17T15:33:36.205Z,4.83
2022-08-17T15:38:41.105Z,3.30
2022-08-17T15:43:51.912Z,5.87
2022-08-17T15:49:00.450Z,3.50
2022-08-17T15:54:18.694Z,3.40
2022-08-17T15:59:21.150Z,3.80
2022-08-17T16:04:29.871Z,5.17
2022-08-17T16:09:33.120Z,3.93
2022-08-17T16:14:35.327Z,3.47
2022-08-17T16:19:40.238Z,6.43
2022-08-17T16:24:57.501Z,5.17
2022-08-17T16:29:59.473Z,5.53
2022-08-17T16:35:10.944Z,5.17
2022-08-17T16:40:16.423Z,4.20
2022-08-17T16:45:27.787Z,3.70
2022-08-17T16:50:30.281Z,3.93
2022-08-17T16:55:35.385Z,5.10
2022-08-17T17:00:38.850Z,8.83
2022-08-17T17:06:06.881Z,6.83
2022-08-17T17:11:34.698Z,18.53
2022-08-17T17:17:01.648Z,5.80
2022-08-17T17:22:45.163Z,9.63
2022-08-17T17:28:24.850Z,8.80
2022-08-17T17:34:07.889Z,7.77
2022-08-17T17:39:55.861Z,7.67
2022-08-17T17:45:17.634Z,4.87
2022-08-17T17:50:25.061Z,5.57
2022-08-17T17:55:38.487Z,8.27
2022-08-17T18:01:09.655Z,6.97
2022-08-17T18:06:49.333Z,7.83
2022-08-17T18:12:03.470Z,11.30
2022-08-17T18:17:07.053Z,9.93
2022-08-17T18:22:21.520Z,5.43
2022-08-17T18:27:33.625Z,6.53
2022-08-17T18:32:43.575Z,9.70
2022-08-17T18:38:22.494Z,10.73
2022-08-17T18:43:44.522Z,8.70
2022-08-17T18:49:07.591Z,11.27
2022-08-17T18:54:25.449Z,7.40
2022-08-17T18:59:40.837Z,6.03
2022-08-17T19:05:25.417Z,5.83
2022-08-17T19:10:46.127Z,6.43
2022-08-17T19:16:18.742Z,8.23
2022-08-17T19:21:37.196Z,7.20
2022-08-17T19:26:53.637Z,12.10
2022-08-17T19:31:59.448Z,10.20
2022-08-17T19:37:44.832Z,8.37
2022-08-17T19:43:23.986Z,8.77
2022-08-17T19:49:22.638Z,7.87
2022-08-17T19:55:24.314Z,11.40
2022-08-17T20:00:26.634Z,6.40
2022-08-17T20:05:48.731Z,9.53
2022-08-17T20:11:27.847Z,6.60
2022-08-17T20:16:33.400Z,8.17
2022-08-17T20:22:20.470Z,8.43
2022-08-17T20:27:32.124Z,8.77
2022-08-17T20:32:59.920Z,9.27
2022-08-17T20:38:07.359Z,8.67
2022-08-17T20:43:58.970Z,8.93
2022-08-17T20:49:38.426Z,6.73
2022-08-17T20:54:55.853Z,5.90
2022-08-17T21:00:18.233Z,7.20
2022-08-17T21:05:32.434Z,9.90
2022-08-17T21:10:38.225Z,7.10
2022-08-17T21:15:53.350Z,8.47
2022-08-17T21:21:46.505Z,7.43
2022-08-17T21:27:34.636Z,7.50
2022-08-17T21:32:41.826Z,8.33
2022-08-17T21:37:53.571Z,10.03
2022-08-17T21:43:15.699Z,7.60
2022-08-17T21:48:24.535Z,9.70
2022-08-17T21:54:00.042Z,8.20
2022-08-17T21:59:39.904Z,10.57
2022-08-17T22:04:43.370Z,8.00
2022-08-17T22:09:49.968Z,11.50
2022-08-17T22:15:05.962Z,7.50
2022-08-17T22:20:19.106Z,9.03
2022-08-17T22:25:23.929Z,17.63
2022-08-17T22:30:57.960Z,7.67
2022-08-17T22:36:24.670Z,8.10
2022-08-17T22:41:40.501Z,9.90
2022-08-17T22:47:11.791Z,8.30
2022-08-17T22:52:16.554Z,10.10
2022-08-17T22:57:41.095Z,14.73
2022-08-17T23:03:15.373Z,12.70
2022-08-17T23:08:21.145Z,7.93
2022-08-17T23:13:23.398Z,9.10
2022-08-17T23:18:27.312Z,10.90
2022-08-17T23:23:29.133Z,8.93
2022-08-17T23:28:30.920Z,11.70
2022-08-17T23:33:35.122Z,8.83
2022-08-17T23:38:36.834Z,8.40
2022-08-17T23:43:40.733Z,8.27
2022-08-17T23:48:43.282Z,10.20
2022-08-17T23:54:05.681Z,11.70
2022-08-17T23:59:09.886Z,15.20
